Terminal Aerodrome Forecast
Issued by NWS

Home | Current Version | Previous Version | Text Only | Print | Product List | Glossary On
Versions: 1 2 3 4 5 6 7 8 9 10 11 12 13 14 15 16
956
FTUS43 KEAX 231726
TAFSTJ
TAF
KSTJ 231726Z 2318/2418 16016G22KT P6SM SCT050
     FM240300 18013KT P6SM SCT150 WS020/19050KT
     FM241400 19015G25KT P6SM VCSH BKN040=

USA.gov is the U.S. government's official web portal to all federal, state and local government web resources and services.